sensor_id;sensor_type;location;lat;lon;timestamp;P1;durP1;ratioP1;P2;durP2;ratioP2
77838;SDS011;67034;43.226;27.932;2023-11-21T00:04:11;5.40;;;3.20;;
77838;SDS011;67034;43.226;27.932;2023-11-21T00:06:36;6.22;;;2.95;;
77838;SDS011;67034;43.226;27.932;2023-11-21T00:09:02;6.18;;;3.13;;
77838;SDS011;67034;43.226;27.932;2023-11-21T00:11:28;6.47;;;2.95;;
77838;SDS011;67034;43.226;27.932;2023-11-21T00:13:54;7.80;;;3.92;;
77838;SDS011;67034;43.226;27.932;2023-11-21T00:16:20;9.23;;;4.60;;
77838;SDS011;67034;43.226;27.932;2023-11-21T00:18:47;9.55;;;4.53;;
77838;SDS011;67034;43.226;27.932;2023-11-21T00:21:14;9.45;;;5.75;;
77838;SDS011;67034;43.226;27.932;2023-11-21T00:23:40;10.25;;;5.57;;
77838;SDS011;67034;43.226;27.932;2023-11-21T00:26:06;7.32;;;4.75;;
77838;SDS011;67034;43.226;27.932;2023-11-21T00:28:32;13.57;;;6.93;;
77838;SDS011;67034;43.226;27.932;2023-11-21T00:30:57;9.98;;;7.18;;
77838;SDS011;67034;43.226;27.932;2023-11-21T00:33:23;12.68;;;7.43;;
77838;SDS011;67034;43.226;27.932;2023-11-21T00:35:50;12.60;;;7.55;;
77838;SDS011;67034;43.226;27.932;2023-11-21T00:38:17;13.27;;;6.90;;
77838;SDS011;67034;43.226;27.932;2023-11-21T00:40:45;11.43;;;6.93;;
77838;SDS011;67034;43.226;27.932;2023-11-21T00:43:10;12.10;;;6.80;;
77838;SDS011;67034;43.226;27.932;2023-11-21T00:45:36;13.38;;;7.22;;
77838;SDS011;67034;43.226;27.932;2023-11-21T00:48:02;13.18;;;6.57;;
77838;SDS011;67034;43.226;27.932;2023-11-21T00:50:30;10.07;;;6.07;;
77838;SDS011;67034;43.226;27.932;2023-11-21T00:55:22;9.98;;;5.97;;
77838;SDS011;67034;43.226;27.932;2023-11-21T00:57:48;12.00;;;7.55;;
77838;SDS011;67034;43.226;27.932;2023-11-21T01:02:42;12.23;;;7.22;;
77838;SDS011;67034;43.226;27.932;2023-11-21T01:05:09;10.32;;;6.00;;
77838;SDS011;67034;43.226;27.932;2023-11-21T01:07:35;9.23;;;6.25;;
77838;SDS011;67034;43.226;27.932;2023-11-21T01:10:02;10.32;;;6.28;;
77838;SDS011;67034;43.226;27.932;2023-11-21T01:12:29;12.38;;;6.85;;
77838;SDS011;67034;43.226;27.932;2023-11-21T01:14:55;9.90;;;6.60;;
77838;SDS011;67034;43.226;27.932;2023-11-21T01:19:48;9.48;;;5.72;;
77838;SDS011;67034;43.226;27.932;2023-11-21T01:24:39;11.35;;;6.45;;
77838;SDS011;67034;43.226;27.932;2023-11-21T01:27:05;6.65;;;4.13;;
77838;SDS011;67034;43.226;27.932;2023-11-21T01:31:57;9.30;;;4.68;;
77838;SDS011;67034;43.226;27.932;2023-11-21T01:36:48;8.20;;;5.35;;
77838;SDS011;67034;43.226;27.932;2023-11-21T01:41:42;13.27;;;6.03;;
77838;SDS011;67034;43.226;27.932;2023-11-21T01:44:09;8.15;;;5.88;;
77838;SDS011;67034;43.226;27.932;2023-11-21T01:49:03;11.57;;;6.13;;
77838;SDS011;67034;43.226;27.932;2023-11-21T01:51:30;14.38;;;6.35;;
77838;SDS011;67034;43.226;27.932;2023-11-21T01:53:56;12.77;;;6.50;;
77838;SDS011;67034;43.226;27.932;2023-11-21T02:03:40;9.82;;;5.47;;
77838;SDS011;67034;43.226;27.932;2023-11-21T02:06:07;8.07;;;5.25;;
77838;SDS011;67034;43.226;27.932;2023-11-21T02:08:33;8.07;;;5.00;;
77838;SDS011;67034;43.226;27.932;2023-11-21T02:10:59;8.30;;;4.47;;
77838;SDS011;67034;43.226;27.932;2023-11-21T02:15:51;7.55;;;4.63;;
77838;SDS011;67034;43.226;27.932;2023-11-21T02:18:19;8.38;;;4.80;;
77838;SDS011;67034;43.226;27.932;2023-11-21T02:20:48;8.15;;;4.90;;
77838;SDS011;67034;43.226;27.932;2023-11-21T02:23:15;8.65;;;4.93;;
77838;SDS011;67034;43.226;27.932;2023-11-21T02:25:41;6.88;;;4.82;;
77838;SDS011;67034;43.226;27.932;2023-11-21T02:28:07;7.60;;;4.93;;
77838;SDS011;67034;43.226;27.932;2023-11-21T02:32:59;7.60;;;5.05;;
77838;SDS011;67034;43.226;27.932;2023-11-21T02:37:53;5.13;;;3.53;;
77838;SDS011;67034;43.226;27.932;2023-11-21T02:42:46;7.22;;;4.03;;
77838;SDS011;67034;43.226;27.932;2023-11-21T02:47:39;5.18;;;3.30;;
77838;SDS011;67034;43.226;27.932;2023-11-21T02:52:33;4.30;;;2.92;;
77838;SDS011;67034;43.226;27.932;2023-11-21T02:57:26;6.53;;;3.35;;
77838;SDS011;67034;43.226;27.932;2023-11-21T02:59:51;5.07;;;3.10;;
77838;SDS011;67034;43.226;27.932;2023-11-21T03:04:42;3.92;;;2.78;;
77838;SDS011;67034;43.226;27.932;2023-11-21T03:09:34;4.70;;;3.00;;
77838;SDS011;67034;43.226;27.932;2023-11-21T03:14:27;4.95;;;3.13;;
77838;SDS011;67034;43.226;27.932;2023-11-21T03:16:53;6.93;;;3.63;;
77838;SDS011;67034;43.226;27.932;2023-11-21T03:21:44;5.43;;;3.20;;
77838;SDS011;67034;43.226;27.932;2023-11-21T03:24:09;7.80;;;3.15;;
77838;SDS011;67034;43.226;27.932;2023-11-21T03:29:03;4.55;;;2.72;;
77838;SDS011;67034;43.226;27.932;2023-11-21T03:31:34;5.82;;;2.83;;
77838;SDS011;67034;43.226;27.932;2023-11-21T03:34:00;5.93;;;3.35;;
77838;SDS011;67034;43.226;27.932;2023-11-21T03:38:51;6.72;;;3.20;;
77838;SDS011;67034;43.226;27.932;2023-11-21T03:46:08;4.75;;;2.60;;
77838;SDS011;67034;43.226;27.932;2023-11-21T03:51:00;3.85;;;2.75;;
77838;SDS011;67034;43.226;27.932;2023-11-21T03:55:51;6.30;;;2.33;;
77838;SDS011;67034;43.226;27.932;2023-11-21T04:00:43;4.00;;;2.63;;
77838;SDS011;67034;43.226;27.932;2023-11-21T04:03:08;5.32;;;2.80;;
77838;SDS011;67034;43.226;27.932;2023-11-21T04:05:35;6.60;;;3.00;;
77838;SDS011;67034;43.226;27.932;2023-11-21T04:08:01;4.13;;;2.67;;
77838;SDS011;67034;43.226;27.932;2023-11-21T04:12:52;5.65;;;3.20;;
77838;SDS011;67034;43.226;27.932;2023-11-21T04:15:18;6.93;;;3.28;;
77838;SDS011;67034;43.226;27.932;2023-11-21T04:17:44;4.68;;;2.92;;
77838;SDS011;67034;43.226;27.932;2023-11-21T04:20:10;4.63;;;3.20;;
77838;SDS011;67034;43.226;27.932;2023-11-21T04:22:38;5.60;;;3.28;;
77838;SDS011;67034;43.226;27.932;2023-11-21T04:25:06;6.68;;;3.83;;
77838;SDS011;67034;43.226;27.932;2023-11-21T04:27:33;4.80;;;3.28;;
77838;SDS011;67034;43.226;27.932;2023-11-21T04:29:59;6.97;;;3.55;;
77838;SDS011;67034;43.226;27.932;2023-11-21T04:32:25;6.47;;;3.40;;
77838;SDS011;67034;43.226;27.932;2023-11-21T04:34:51;5.80;;;3.17;;
77838;SDS011;67034;43.226;27.932;2023-11-21T04:37:16;6.28;;;3.40;;
77838;SDS011;67034;43.226;27.932;2023-11-21T04:39:43;5.75;;;3.47;;
77838;SDS011;67034;43.226;27.932;2023-11-21T04:42:09;4.72;;;3.17;;
77838;SDS011;67034;43.226;27.932;2023-11-21T04:44:35;6.35;;;3.70;;
77838;SDS011;67034;43.226;27.932;2023-11-21T04:47:00;7.32;;;4.20;;
77838;SDS011;67034;43.226;27.932;2023-11-21T04:49:26;10.50;;;5.93;;
77838;SDS011;67034;43.226;27.932;2023-11-21T04:51:52;31.67;;;12.65;;
77838;SDS011;67034;43.226;27.932;2023-11-21T04:54:18;11.57;;;5.53;;
77838;SDS011;67034;43.226;27.932;2023-11-21T04:56:45;8.60;;;4.97;;
77838;SDS011;67034;43.226;27.932;2023-11-21T04:59:10;8.82;;;4.88;;
77838;SDS011;67034;43.226;27.932;2023-11-21T05:01:36;6.35;;;4.43;;
77838;SDS011;67034;43.226;27.932;2023-11-21T05:04:02;7.65;;;4.63;;
77838;SDS011;67034;43.226;27.932;2023-11-21T05:06:28;8.65;;;4.82;;
77838;SDS011;67034;43.226;27.932;2023-11-21T05:11:23;5.65;;;3.38;;
77838;SDS011;67034;43.226;27.932;2023-11-21T05:13:51;5.53;;;3.30;;
77838;SDS011;67034;43.226;27.932;2023-11-21T05:16:16;5.57;;;3.38;;
77838;SDS011;67034;43.226;27.932;2023-11-21T05:18:42;3.33;;;2.47;;
77838;SDS011;67034;43.226;27.932;2023-11-21T05:21:08;3.63;;;2.50;;
77838;SDS011;67034;43.226;27.932;2023-11-21T05:23:34;8.88;;;3.17;;
77838;SDS011;67034;43.226;27.932;2023-11-21T05:26:00;7.95;;;3.28;;
77838;SDS011;67034;43.226;27.932;2023-11-21T05:28:26;3.72;;;2.28;;
77838;SDS011;67034;43.226;27.932;2023-11-21T05:30:53;4.25;;;2.42;;
77838;SDS011;67034;43.226;27.932;2023-11-21T05:33:19;4.70;;;2.22;;
77838;SDS011;67034;43.226;27.932;2023-11-21T05:35:45;6.40;;;2.55;;
77838;SDS011;67034;43.226;27.932;2023-11-21T05:38:11;3.85;;;1.98;;
77838;SDS011;67034;43.226;27.932;2023-11-21T05:40:37;4.88;;;2.53;;
77838;SDS011;67034;43.226;27.932;2023-11-21T05:43:02;4.78;;;2.33;;
77838;SDS011;67034;43.226;27.932;2023-11-21T05:45:30;4.18;;;2.22;;
77838;SDS011;67034;43.226;27.932;2023-11-21T05:47:58;4.15;;;2.00;;
77838;SDS011;67034;43.226;27.932;2023-11-21T05:50:24;5.70;;;2.10;;
77838;SDS011;67034;43.226;27.932;2023-11-21T05:52:52;5.28;;;2.53;;
77838;SDS011;67034;43.226;27.932;2023-11-21T05:55:17;4.82;;;2.33;;
77838;SDS011;67034;43.226;27.932;2023-11-21T05:57:46;4.90;;;2.28;;
77838;SDS011;67034;43.226;27.932;2023-11-21T06:00:12;5.60;;;2.55;;
77838;SDS011;67034;43.226;27.932;2023-11-21T06:02:46;4.70;;;2.60;;
77838;SDS011;67034;43.226;27.932;2023-11-21T06:05:14;4.35;;;2.40;;
77838;SDS011;67034;43.226;27.932;2023-11-21T06:07:40;4.80;;;2.63;;
77838;SDS011;67034;43.226;27.932;2023-11-21T06:10:07;3.55;;;2.30;;
77838;SDS011;67034;43.226;27.932;2023-11-21T06:12:36;4.72;;;2.45;;
77838;SDS011;67034;43.226;27.932;2023-11-21T06:15:02;9.18;;;3.08;;
77838;SDS011;67034;43.226;27.932;2023-11-21T06:17:30;22.38;;;9.50;;
77838;SDS011;67034;43.226;27.932;2023-11-21T06:19:56;19.00;;;10.48;;
77838;SDS011;67034;43.226;27.932;2023-11-21T06:22:23;20.98;;;10.60;;
77838;SDS011;67034;43.226;27.932;2023-11-21T06:24:49;18.05;;;9.95;;
77838;SDS011;67034;43.226;27.932;2023-11-21T06:27:15;20.63;;;10.30;;
77838;SDS011;67034;43.226;27.932;2023-11-21T06:29:41;21.77;;;9.15;;
77838;SDS011;67034;43.226;27.932;2023-11-21T06:32:07;14.57;;;8.25;;
77838;SDS011;67034;43.226;27.932;2023-11-21T06:34:33;15.30;;;7.60;;
77838;SDS011;67034;43.226;27.932;2023-11-21T06:37:00;10.93;;;7.25;;
77838;SDS011;67034;43.226;27.932;2023-11-21T06:39:27;11.85;;;7.88;;
77838;SDS011;67034;43.226;27.932;2023-11-21T06:41:53;9.38;;;6.85;;
77838;SDS011;67034;43.226;27.932;2023-11-21T06:44:19;12.02;;;6.55;;
77838;SDS011;67034;43.226;27.932;2023-11-21T06:46:45;17.38;;;7.10;;
77838;SDS011;67034;43.226;27.932;2023-11-21T06:49:11;13.07;;;8.13;;
77838;SDS011;67034;43.226;27.932;2023-11-21T06:51:37;15.18;;;7.20;;
77838;SDS011;67034;43.226;27.932;2023-11-21T06:54:02;15.87;;;6.47;;
77838;SDS011;67034;43.226;27.932;2023-11-21T06:56:30;11.18;;;5.78;;
77838;SDS011;67034;43.226;27.932;2023-11-21T06:58:56;9.23;;;6.43;;
77838;SDS011;67034;43.226;27.932;2023-11-21T07:01:21;8.55;;;4.30;;
77838;SDS011;67034;43.226;27.932;2023-11-21T07:03:47;10.90;;;5.22;;
77838;SDS011;67034;43.226;27.932;2023-11-21T07:06:13;9.48;;;4.15;;
77838;SDS011;67034;43.226;27.932;2023-11-21T07:08:38;5.70;;;3.60;;
77838;SDS011;67034;43.226;27.932;2023-11-21T07:11:04;9.82;;;4.50;;
77838;SDS011;67034;43.226;27.932;2023-11-21T07:13:32;11.02;;;4.82;;
77838;SDS011;67034;43.226;27.932;2023-11-21T07:15:59;9.03;;;5.27;;
77838;SDS011;67034;43.226;27.932;2023-11-21T07:18:24;11.80;;;4.63;;
77838;SDS011;67034;43.226;27.932;2023-11-21T07:20:50;11.18;;;4.40;;
77838;SDS011;67034;43.226;27.932;2023-11-21T07:23:17;8.10;;;4.63;;
77838;SDS011;67034;43.226;27.932;2023-11-21T07:25:42;6.55;;;4.20;;
77838;SDS011;67034;43.226;27.932;2023-11-21T07:28:08;9.50;;;4.75;;
77838;SDS011;67034;43.226;27.932;2023-11-21T07:30:35;9.07;;;5.65;;
77838;SDS011;67034;43.226;27.932;2023-11-21T07:33:01;10.80;;;5.13;;
77838;SDS011;67034;43.226;27.932;2023-11-21T07:35:27;9.85;;;5.53;;
77838;SDS011;67034;43.226;27.932;2023-11-21T07:37:53;10.73;;;4.88;;
77838;SDS011;67034;43.226;27.932;2023-11-21T07:40:18;14.70;;;6.53;;
77838;SDS011;67034;43.226;27.932;2023-11-21T07:42:47;12.95;;;5.80;;
77838;SDS011;67034;43.226;27.932;2023-11-21T07:45:13;14.95;;;7.35;;
77838;SDS011;67034;43.226;27.932;2023-11-21T07:47:41;11.88;;;5.95;;
77838;SDS011;67034;43.226;27.932;2023-11-21T07:50:07;10.07;;;5.47;;
77838;SDS011;67034;43.226;27.932;2023-11-21T07:52:34;16.35;;;5.97;;
77838;SDS011;67034;43.226;27.932;2023-11-21T07:55:00;12.45;;;6.10;;
77838;SDS011;67034;43.226;27.932;2023-11-21T07:57:28;19.77;;;8.35;;
77838;SDS011;67034;43.226;27.932;2023-11-21T07:59:54;13.65;;;7.00;;
77838;SDS011;67034;43.226;27.932;2023-11-21T08:02:21;12.28;;;7.53;;
77838;SDS011;67034;43.226;27.932;2023-11-21T08:04:48;12.38;;;7.72;;
77838;SDS011;67034;43.226;27.932;2023-11-21T08:07:14;14.80;;;8.15;;
77838;SDS011;67034;43.226;27.932;2023-11-21T08:09:40;11.18;;;6.97;;
77838;SDS011;67034;43.226;27.932;2023-11-21T08:12:06;7.85;;;6.25;;
77838;SDS011;67034;43.226;27.932;2023-11-21T08:14:32;13.57;;;6.75;;
77838;SDS011;67034;43.226;27.932;2023-11-21T08:16:58;10.35;;;6.65;;
77838;SDS011;67034;43.226;27.932;2023-11-21T08:19:24;15.98;;;7.00;;
77838;SDS011;67034;43.226;27.932;2023-11-21T08:21:54;10.93;;;6.03;;
77838;SDS011;67034;43.226;27.932;2023-11-21T08:24:20;11.93;;;6.15;;
77838;SDS011;67034;43.226;27.932;2023-11-21T08:26:46;8.75;;;6.00;;
77838;SDS011;67034;43.226;27.932;2023-11-21T08:29:11;14.02;;;5.70;;
77838;SDS011;67034;43.226;27.932;2023-11-21T08:31:37;13.05;;;6.93;;
77838;SDS011;67034;43.226;27.932;2023-11-21T08:34:03;12.65;;;5.85;;
77838;SDS011;67034;43.226;27.932;2023-11-21T08:36:29;12.07;;;5.63;;
77838;SDS011;67034;43.226;27.932;2023-11-21T08:38:58;6.93;;;4.80;;
77838;SDS011;67034;43.226;27.932;2023-11-21T08:41:23;12.55;;;5.28;;
77838;SDS011;67034;43.226;27.932;2023-11-21T08:43:49;12.48;;;4.78;;
77838;SDS011;67034;43.226;27.932;2023-11-21T08:46:15;12.15;;;4.60;;
77838;SDS011;67034;43.226;27.932;2023-11-21T08:48:43;9.73;;;4.50;;
77838;SDS011;67034;43.226;27.932;2023-11-21T08:51:09;7.57;;;4.35;;
77838;SDS011;67034;43.226;27.932;2023-11-21T08:53:36;7.10;;;3.25;;
77838;SDS011;67034;43.226;27.932;2023-11-21T08:56:04;6.75;;;3.00;;
77838;SDS011;67034;43.226;27.932;2023-11-21T08:58:31;7.57;;;3.83;;
77838;SDS011;67034;43.226;27.932;2023-11-21T09:00:58;5.38;;;3.33;;
77838;SDS011;67034;43.226;27.932;2023-11-21T09:03:23;6.53;;;3.63;;
77838;SDS011;67034;43.226;27.932;2023-11-21T09:05:50;9.10;;;3.90;;
77838;SDS011;67034;43.226;27.932;2023-11-21T09:08:16;7.50;;;3.65;;
77838;SDS011;67034;43.226;27.932;2023-11-21T09:10:42;4.68;;;2.95;;
77838;SDS011;67034;43.226;27.932;2023-11-21T09:15:37;9.32;;;3.67;;
77838;SDS011;67034;43.226;27.932;2023-11-21T09:18:03;10.77;;;3.55;;
77838;SDS011;67034;43.226;27.932;2023-11-21T09:20:30;7.15;;;3.88;;
77838;SDS011;67034;43.226;27.932;2023-11-21T09:22:56;9.05;;;3.65;;
77838;SDS011;67034;43.226;27.932;2023-11-21T09:25:22;12.60;;;4.68;;
77838;SDS011;67034;43.226;27.932;2023-11-21T09:27:48;9.93;;;4.22;;
77838;SDS011;67034;43.226;27.932;2023-11-21T09:30:16;11.27;;;4.45;;
77838;SDS011;67034;43.226;27.932;2023-11-21T09:32:41;5.95;;;3.53;;
77838;SDS011;67034;43.226;27.932;2023-11-21T09:35:10;12.07;;;5.03;;
77838;SDS011;67034;43.226;27.932;2023-11-21T09:37:39;10.75;;;4.55;;
77838;SDS011;67034;43.226;27.932;2023-11-21T09:40:05;12.48;;;5.03;;
77838;SDS011;67034;43.226;27.932;2023-11-21T09:42:38;10.32;;;4.85;;
77838;SDS011;67034;43.226;27.932;2023-11-21T09:45:09;8.77;;;3.50;;
77838;SDS011;67034;43.226;27.932;2023-11-21T09:47:42;9.57;;;4.53;;
77838;SDS011;67034;43.226;27.932;2023-11-21T09:50:08;17.15;;;5.97;;
77838;SDS011;67034;43.226;27.932;2023-11-21T09:52:38;7.68;;;4.25;;
77838;SDS011;67034;43.226;27.932;2023-11-21T09:55:13;15.90;;;6.63;;
77838;SDS011;67034;43.226;27.932;2023-11-21T09:57:41;17.45;;;5.43;;
77838;SDS011;67034;43.226;27.932;2023-11-21T10:00:07;9.18;;;3.88;;
77838;SDS011;67034;43.226;27.932;2023-11-21T10:02:37;10.52;;;4.53;;
77838;SDS011;67034;43.226;27.932;2023-11-21T10:05:07;8.00;;;4.05;;
77838;SDS011;67034;43.226;27.932;2023-11-21T10:07:36;10.05;;;3.90;;
77838;SDS011;67034;43.226;27.932;2023-11-21T10:10:05;4.18;;;3.03;;
77838;SDS011;67034;43.226;27.932;2023-11-21T10:12:34;6.63;;;2.97;;
77838;SDS011;67034;43.226;27.932;2023-11-21T10:15:00;11.57;;;3.58;;
77838;SDS011;67034;43.226;27.932;2023-11-21T10:17:31;6.03;;;3.15;;
77838;SDS011;67034;43.226;27.932;2023-11-21T10:20:10;5.70;;;3.15;;
77838;SDS011;67034;43.226;27.932;2023-11-21T10:22:36;9.23;;;3.50;;
77838;SDS011;67034;43.226;27.932;2023-11-21T10:25:04;10.48;;;3.50;;
77838;SDS011;67034;43.226;27.932;2023-11-21T10:27:33;6.57;;;3.00;;
77838;SDS011;67034;43.226;27.932;2023-11-21T10:30:00;7.10;;;2.97;;
77838;SDS011;67034;43.226;27.932;2023-11-21T10:32:27;8.00;;;3.05;;
77838;SDS011;67034;43.226;27.932;2023-11-21T10:34:56;4.68;;;3.10;;
77838;SDS011;67034;43.226;27.932;2023-11-21T10:37:24;4.65;;;3.25;;
77838;SDS011;67034;43.226;27.932;2023-11-21T10:39:51;4.82;;;2.83;;
77838;SDS011;67034;43.226;27.932;2023-11-21T10:42:22;5.88;;;3.08;;
77838;SDS011;67034;43.226;27.932;2023-11-21T10:44:49;6.78;;;2.88;;
77838;SDS011;67034;43.226;27.932;2023-11-21T10:47:15;5.50;;;2.60;;
77838;SDS011;67034;43.226;27.932;2023-11-21T10:49:44;6.05;;;2.90;;
77838;SDS011;67034;43.226;27.932;2023-11-21T10:52:10;3.85;;;2.70;;
77838;SDS011;67034;43.226;27.932;2023-11-21T10:54:43;5.10;;;2.53;;
77838;SDS011;67034;43.226;27.932;2023-11-21T10:57:09;3.90;;;2.40;;
77838;SDS011;67034;43.226;27.932;2023-11-21T10:59:36;6.88;;;2.83;;
77838;SDS011;67034;43.226;27.932;2023-11-21T11:02:04;5.10;;;2.80;;
77838;SDS011;67034;43.226;27.932;2023-11-21T11:04:46;4.07;;;2.47;;
77838;SDS011;67034;43.226;27.932;2023-11-21T11:07:13;4.97;;;2.50;;
77838;SDS011;67034;43.226;27.932;2023-11-21T11:09:41;4.95;;;3.28;;
77838;SDS011;67034;43.226;27.932;2023-11-21T11:12:10;3.70;;;2.35;;
77838;SDS011;67034;43.226;27.932;2023-11-21T11:14:39;6.85;;;2.78;;
77838;SDS011;67034;43.226;27.932;2023-11-21T11:17:07;3.90;;;2.65;;
77838;SDS011;67034;43.226;27.932;2023-11-21T11:19:34;7.70;;;3.33;;
77838;SDS011;67034;43.226;27.932;2023-11-21T11:22:02;11.18;;;3.58;;
77838;SDS011;67034;43.226;27.932;2023-11-21T11:24:43;5.10;;;3.15;;
77838;SDS011;67034;43.226;27.932;2023-11-21T11:27:23;8.88;;;3.08;;
77838;SDS011;67034;43.226;27.932;2023-11-21T11:32:30;5.68;;;2.97;;
77838;SDS011;67034;43.226;27.932;2023-11-21T11:35:06;3.67;;;2.30;;
77838;SDS011;67034;43.226;27.932;2023-11-21T11:37:41;3.88;;;2.22;;
77838;SDS011;67034;43.226;27.932;2023-11-21T11:40:08;3.95;;;2.08;;
77838;SDS011;67034;43.226;27.932;2023-11-21T11:42:37;5.65;;;2.38;;
77838;SDS011;67034;43.226;27.932;2023-11-21T11:45:07;7.38;;;2.45;;
77838;SDS011;67034;43.226;27.932;2023-11-21T11:47:42;2.90;;;1.93;;
77838;SDS011;67034;43.226;27.932;2023-11-21T11:50:09;5.25;;;2.40;;
77838;SDS011;67034;43.226;27.932;2023-11-21T11:52:39;3.92;;;2.40;;
77838;SDS011;67034;43.226;27.932;2023-11-21T11:55:06;3.03;;;2.00;;
77838;SDS011;67034;43.226;27.932;2023-11-21T11:57:35;4.82;;;2.60;;
77838;SDS011;67034;43.226;27.932;2023-11-21T12:03:02;4.45;;;2.38;;
77838;SDS011;67034;43.226;27.932;2023-11-21T12:05:29;5.00;;;2.30;;
77838;SDS011;67034;43.226;27.932;2023-11-21T12:07:59;4.90;;;2.22;;
77838;SDS011;67034;43.226;27.932;2023-11-21T12:10:27;7.70;;;4.40;;
77838;SDS011;67034;43.226;27.932;2023-11-21T12:12:54;12.13;;;5.40;;
77838;SDS011;67034;43.226;27.932;2023-11-21T12:15:21;13.23;;;5.13;;
77838;SDS011;67034;43.226;27.932;2023-11-21T12:17:49;16.27;;;6.30;;
77838;SDS011;67034;43.226;27.932;2023-11-21T12:20:16;13.45;;;5.50;;
77838;SDS011;67034;43.226;27.932;2023-11-21T12:22:44;14.73;;;6.82;;
77838;SDS011;67034;43.226;27.932;2023-11-21T12:25:15;13.85;;;6.35;;
77838;SDS011;67034;43.226;27.932;2023-11-21T12:27:42;13.65;;;5.82;;
77838;SDS011;67034;43.226;27.932;2023-11-21T12:30:09;14.38;;;6.07;;
77838;SDS011;67034;43.226;27.932;2023-11-21T12:32:38;11.63;;;5.63;;
77838;SDS011;67034;43.226;27.932;2023-11-21T12:35:07;10.45;;;5.38;;
77838;SDS011;67034;43.226;27.932;2023-11-21T12:37:35;13.18;;;5.07;;
77838;SDS011;67034;43.226;27.932;2023-11-21T12:40:01;8.90;;;4.57;;
77838;SDS011;67034;43.226;27.932;2023-11-21T12:42:27;10.95;;;4.40;;
77838;SDS011;67034;43.226;27.932;2023-11-21T12:45:09;20.45;;;10.88;;
77838;SDS011;67034;43.226;27.932;2023-11-21T12:47:43;14.48;;;9.10;;
77838;SDS011;67034;43.226;27.932;2023-11-21T12:50:14;45.17;;;20.63;;
77838;SDS011;67034;43.226;27.932;2023-11-21T12:52:44;17.33;;;6.23;;
77838;SDS011;67034;43.226;27.932;2023-11-21T12:55:14;6.10;;;4.10;;
77838;SDS011;67034;43.226;27.932;2023-11-21T12:57:42;7.20;;;3.67;;
77838;SDS011;67034;43.226;27.932;2023-11-21T13:00:08;14.43;;;4.65;;
77838;SDS011;67034;43.226;27.932;2023-11-21T13:02:40;7.18;;;4.05;;
77838;SDS011;67034;43.226;27.932;2023-11-21T13:05:08;11.30;;;4.30;;
77838;SDS011;67034;43.226;27.932;2023-11-21T13:07:45;5.88;;;3.53;;
77838;SDS011;67034;43.226;27.932;2023-11-21T13:10:12;5.93;;;3.95;;
77838;SDS011;67034;43.226;27.932;2023-11-21T13:12:42;6.00;;;3.75;;
77838;SDS011;67034;43.226;27.932;2023-11-21T13:15:09;6.30;;;3.78;;
77838;SDS011;67034;43.226;27.932;2023-11-21T13:17:35;5.18;;;3.28;;
77838;SDS011;67034;43.226;27.932;2023-11-21T13:20:01;22.98;;;8.98;;
77838;SDS011;67034;43.226;27.932;2023-11-21T13:22:31;15.55;;;6.28;;
77838;SDS011;67034;43.226;27.932;2023-11-21T13:24:59;7.78;;;4.20;;
77838;SDS011;67034;43.226;27.932;2023-11-21T13:27:25;11.52;;;4.13;;
77838;SDS011;67034;43.226;27.932;2023-11-21T13:29:51;6.32;;;3.20;;
77838;SDS011;67034;43.226;27.932;2023-11-21T13:32:17;14.02;;;4.55;;
77838;SDS011;67034;43.226;27.932;2023-11-21T13:34:46;7.90;;;3.83;;
77838;SDS011;67034;43.226;27.932;2023-11-21T13:37:12;8.45;;;3.40;;
77838;SDS011;67034;43.226;27.932;2023-11-21T13:39:38;7.78;;;4.20;;
77838;SDS011;67034;43.226;27.932;2023-11-21T13:42:11;7.82;;;4.35;;
77838;SDS011;67034;43.226;27.932;2023-11-21T13:44:36;7.40;;;4.13;;
77838;SDS011;67034;43.226;27.932;2023-11-21T13:47:06;22.75;;;5.97;;
77838;SDS011;67034;43.226;27.932;2023-11-21T13:49:31;14.73;;;4.80;;
77838;SDS011;67034;43.226;27.932;2023-11-21T13:52:01;18.50;;;6.93;;
77838;SDS011;67034;43.226;27.932;2023-11-21T13:54:28;17.23;;;4.30;;
77838;SDS011;67034;43.226;27.932;2023-11-21T13:56:54;12.63;;;5.47;;
77838;SDS011;67034;43.226;27.932;2023-11-21T13:59:21;11.85;;;3.88;;
77838;SDS011;67034;43.226;27.932;2023-11-21T14:01:53;5.72;;;3.50;;
77838;SDS011;67034;43.226;27.932;2023-11-21T14:04:21;6.95;;;3.58;;
77838;SDS011;67034;43.226;27.932;2023-11-21T14:07:04;7.20;;;3.17;;
77838;SDS011;67034;43.226;27.932;2023-11-21T14:09:45;4.85;;;3.20;;
77838;SDS011;67034;43.226;27.932;2023-11-21T14:12:11;6.50;;;2.72;;
77838;SDS011;67034;43.226;27.932;2023-11-21T14:14:42;5.78;;;3.13;;
77838;SDS011;67034;43.226;27.932;2023-11-21T14:17:09;5.95;;;3.03;;
77838;SDS011;67034;43.226;27.932;2023-11-21T14:19:35;4.53;;;2.83;;
77838;SDS011;67034;43.226;27.932;2023-11-21T14:22:05;6.70;;;3.05;;
77838;SDS011;67034;43.226;27.932;2023-11-21T14:24:32;6.93;;;3.20;;
77838;SDS011;67034;43.226;27.932;2023-11-21T14:26:58;5.70;;;2.97;;
77838;SDS011;67034;43.226;27.932;2023-11-21T14:29:24;4.72;;;3.00;;
77838;SDS011;67034;43.226;27.932;2023-11-21T14:31:51;6.72;;;2.83;;
77838;SDS011;67034;43.226;27.932;2023-11-21T14:34:21;5.55;;;3.08;;
77838;SDS011;67034;43.226;27.932;2023-11-21T14:36:47;4.75;;;2.78;;
77838;SDS011;67034;43.226;27.932;2023-11-21T14:39:14;7.93;;;2.78;;
77838;SDS011;67034;43.226;27.932;2023-11-21T14:41:51;6.65;;;2.80;;
77838;SDS011;67034;43.226;27.932;2023-11-21T14:44:19;6.47;;;2.78;;
77838;SDS011;67034;43.226;27.932;2023-11-21T14:46:45;6.40;;;3.80;;
77838;SDS011;67034;43.226;27.932;2023-11-21T14:49:16;6.05;;;3.92;;
77838;SDS011;67034;43.226;27.932;2023-11-21T14:51:46;6.30;;;3.67;;
77838;SDS011;67034;43.226;27.932;2023-11-21T14:54:45;4.90;;;3.42;;
77838;SDS011;67034;43.226;27.932;2023-11-21T14:57:23;6.68;;;3.42;;
77838;SDS011;67034;43.226;27.932;2023-11-21T14:59:49;4.20;;;3.05;;
77838;SDS011;67034;43.226;27.932;2023-11-21T15:02:22;7.40;;;3.17;;
77838;SDS011;67034;43.226;27.932;2023-11-21T15:05:10;5.25;;;3.20;;
77838;SDS011;67034;43.226;27.932;2023-11-21T15:07:41;4.68;;;3.00;;
77838;SDS011;67034;43.226;27.932;2023-11-21T15:10:07;7.85;;;3.33;;
77838;SDS011;67034;43.226;27.932;2023-11-21T15:12:39;6.13;;;3.20;;
77838;SDS011;67034;43.226;27.932;2023-11-21T15:15:05;7.75;;;4.03;;
77838;SDS011;67034;43.226;27.932;2023-11-21T15:17:35;5.20;;;3.55;;
77838;SDS011;67034;43.226;27.932;2023-11-21T15:20:02;7.43;;;3.90;;
77838;SDS011;67034;43.226;27.932;2023-11-21T15:22:33;8.35;;;4.63;;
77838;SDS011;67034;43.226;27.932;2023-11-21T15:24:59;6.35;;;4.40;;
77838;SDS011;67034;43.226;27.932;2023-11-21T15:27:29;9.40;;;4.90;;
77838;SDS011;67034;43.226;27.932;2023-11-21T15:29:55;8.75;;;4.70;;
77838;SDS011;67034;43.226;27.932;2023-11-21T15:32:21;6.82;;;4.80;;
77838;SDS011;67034;43.226;27.932;2023-11-21T15:34:47;9.75;;;5.53;;
77838;SDS011;67034;43.226;27.932;2023-11-21T15:37:13;5.93;;;4.55;;
77838;SDS011;67034;43.226;27.932;2023-11-21T15:39:40;8.20;;;5.10;;
77838;SDS011;67034;43.226;27.932;2023-11-21T15:42:06;7.50;;;5.57;;
77838;SDS011;67034;43.226;27.932;2023-11-21T15:44:32;8.00;;;5.60;;
77838;SDS011;67034;43.226;27.932;2023-11-21T15:46:58;10.82;;;5.68;;
77838;SDS011;67034;43.226;27.932;2023-11-21T15:49:24;12.95;;;6.20;;
77838;SDS011;67034;43.226;27.932;2023-11-21T15:51:52;6.88;;;4.85;;
77838;SDS011;67034;43.226;27.932;2023-11-21T15:54:19;10.25;;;5.18;;
77838;SDS011;67034;43.226;27.932;2023-11-21T15:56:47;7.93;;;5.10;;
77838;SDS011;67034;43.226;27.932;2023-11-21T15:59:13;7.00;;;5.30;;